Weather at Gunters Hill Airport / Vernam Field [CLOSED]

Public forecast

Using degrees Celsius for public forecast. Weather courtesy of forecast.io.

Closest aviation weather report (METAR) to Gunters Hill Airport / Vernam Field

Closest report is Norman Manley International Airport, 29.6 nm (54.9 km) E. Retrieved 2021/05/16 21:00 UTC (26 minutes ago):

MKJP 162100Z 13012KT 9999 FEW020 FEW022CB SCT036 29/23 Q1013

Closest aviation forecast (TAF) to Gunters Hill Airport / Vernam Field

Closest forecast is Norman Manley International Airport, 29.6 nm (54.9 km) E. Retrieved 2021/05/16 18:15 UTC (3 hours ago):

TAF MKJP 161715Z 1618/1718 17014KT 9999 FEW022 PROB30 TEMPO 1619/1623 SHRA BKN020 FEW022 FEW022CB BECMG 1703/1705 36005KT BECMG 1715/1717 15014KT